Time;durP1;ratioP1;P1;durP2;ratioP2;P2;SDS_P1;SDS_P2;PMS_P1;PMS_P2;Temp;Humidity;BMP_temperature;BMP_pressure;BME280_temperature;BME280_humidity;BME280_pressure;Samples;Min_cycle;Max_cycle;Signal;HPM_P1;HPM_P2
2022/05/23 00:03:21;;;;;;;3.27;2.80;;;6.00;99.90;;;;;;8326586;28;20264;-77
2022/05/23 00:07:44;;;;;;;5.13;3.10;;;5.90;99.90;;;;;;8355018;28;20189;-78
2022/05/23 00:11:48;;;;;;;4.50;3.10;;;5.90;99.90;;;;;;8335068;28;20193;-77
2022/05/23 00:15:50;;;;;;;3.10;2.47;;;5.90;99.90;;;;;;8329360;28;20217;-77
2022/05/23 00:19:50;;;;;;;3.30;3.00;;;5.80;99.90;;;;;;8328253;28;20237;-77
2022/05/23 00:23:51;;;;;;;3.30;2.63;;;5.80;99.90;;;;;;8325643;28;20228;-79
2022/05/23 00:27:53;;;;;;;2.97;2.37;;;5.70;99.90;;;;;;8336283;28;20215;-77
2022/05/23 00:36:13;;;;;;;3.97;2.30;;;5.60;99.90;;;;;;8344144;28;20286;-78
2022/05/23 00:40:41;;;;;;;2.63;2.07;;;5.50;99.90;;;;;;8329984;28;20208;-77
2022/05/23 00:44:41;;;;;;;3.53;2.77;;;5.40;99.90;;;;;;8344727;28;20215;-77
2022/05/23 00:48:44;;;;;;;4.90;2.43;;;5.40;99.90;;;;;;8329808;28;20174;-79
2022/05/23 00:52:54;;;;;;;5.00;2.57;;;5.30;99.90;;;;;;8326532;28;20201;-79
2022/05/23 00:56:55;;;;;;;3.97;2.80;;;5.30;99.90;;;;;;8326133;28;20224;-78
2022/05/23 01:00:58;;;;;;;3.30;3.00;;;5.30;99.90;;;;;;8345488;28;20244;-78
2022/05/23 01:04:59;;;;;;;3.93;2.90;;;5.30;99.90;;;;;;8332346;28;20213;-79
2022/05/23 01:09:00;;;;;;;3.00;2.70;;;5.30;99.90;;;;;;8325098;28;20316;-77
2022/05/23 01:13:02;;;;;;;2.87;2.50;;;5.20;99.90;;;;;;8328678;28;20188;-78
2022/05/23 01:17:03;;;;;;;4.10;2.93;;;5.10;99.90;;;;;;8323985;28;20224;-78
2022/05/23 01:21:06;;;;;;;3.60;2.50;;;5.00;99.90;;;;;;8326124;28;20208;-80
2022/05/23 01:25:25;;;;;;;2.70;2.50;;;5.00;99.90;;;;;;8322261;28;20187;-78
2022/05/23 01:29:26;;;;;;;2.50;2.30;;;5.00;99.90;;;;;;8338309;28;20200;-79
2022/05/23 01:33:27;;;;;;;4.70;2.60;;;4.90;99.90;;;;;;8319714;28;20536;-78
2022/05/23 01:37:27;;;;;;;4.13;2.90;;;4.90;99.90;;;;;;8331507;28;20187;-78
2022/05/23 01:41:28;;;;;;;5.83;2.43;;;4.80;99.90;;;;;;8348313;28;20214;-78
2022/05/23 01:45:32;;;;;;;4.07;2.83;;;4.80;99.90;;;;;;8329118;28;20299;-78
2022/05/23 01:49:33;;;;;;;4.57;3.10;;;4.70;99.90;;;;;;8352805;28;20591;-78
2022/05/23 01:53:34;;;;;;;3.27;2.77;;;4.70;99.90;;;;;;8330784;28;20192;-79
2022/05/23 01:57:35;;;;;;;3.37;2.70;;;4.60;99.90;;;;;;8345218;28;20195;-77
2022/05/23 02:01:37;;;;;;;2.93;2.47;;;4.60;99.90;;;;;;8334074;28;20202;-78
2022/05/23 02:05:38;;;;;;;2.83;2.30;;;4.50;99.90;;;;;;8336585;28;20269;-79
2022/05/23 02:09:40;;;;;;;3.10;2.80;;;4.50;99.90;;;;;;8345585;28;20174;-78
2022/05/23 02:13:43;;;;;;;3.17;2.57;;;4.40;99.90;;;;;;8324339;28;20194;-78
2022/05/23 02:17:44;;;;;;;3.70;3.17;;;4.40;99.90;;;;;;8344940;28;20187;-78
2022/05/23 02:21:44;;;;;;;5.57;3.00;;;4.40;99.90;;;;;;8332284;28;20298;-78
2022/05/23 02:25:46;;;;;;;6.43;3.17;;;4.30;99.90;;;;;;8327111;28;20181;-78
2022/05/23 02:29:46;;;;;;;3.63;2.87;;;4.30;99.90;;;;;;8323787;28;20193;-78
2022/05/23 02:33:48;;;;;;;3.20;2.90;;;4.30;99.90;;;;;;8326331;28;20197;-77
2022/05/23 02:37:49;;;;;;;3.80;3.07;;;4.30;99.90;;;;;;8326809;28;20187;-79
2022/05/23 02:41:50;;;;;;;4.50;2.93;;;4.20;99.90;;;;;;8327094;28;20240;-79
2022/05/23 02:45:51;;;;;;;4.47;3.07;;;4.20;99.90;;;;;;8324678;28;20191;-78
2022/05/23 02:49:52;;;;;;;4.00;3.10;;;4.10;99.90;;;;;;8331858;28;20192;-78
2022/05/23 02:53:53;;;;;;;4.57;3.50;;;4.10;99.90;;;;;;8323655;28;20183;-78
2022/05/23 02:57:53;;;;;;;4.37;3.37;;;4.10;99.90;;;;;;8325087;28;20222;-78
2022/05/23 03:06:13;;;;;;;4.50;3.40;;;4.20;99.90;;;;;;8344197;28;20280;-79
2022/05/23 03:10:14;;;;;;;5.30;4.00;;;4.30;99.90;;;;;;8326651;28;20211;-79
2022/05/23 03:14:15;;;;;;;3.80;3.40;;;4.40;99.90;;;;;;8325309;28;20178;-80
2022/05/23 03:18:16;;;;;;;3.60;3.30;;;4.40;99.90;;;;;;8324844;28;20227;-77
2022/05/23 03:30:55;;;;;;;6.33;3.87;;;5.80;99.90;;;;;;8336821;28;20205;-75
2022/05/23 03:34:56;;;;;;;3.80;3.20;;;6.20;99.90;;;;;;8344413;28;20264;-76
2022/05/23 03:38:56;;;;;;;5.50;3.87;;;6.20;99.90;;;;;;8324201;28;20206;-77
2022/05/23 03:42:57;;;;;;;4.23;3.10;;;6.20;99.90;;;;;;8324043;28;20248;-76
2022/05/23 03:46:58;;;;;;;4.67;3.07;;;6.90;99.90;;;;;;8321974;28;20185;-74
2022/05/23 03:51:00;;;;;;;2.90;2.60;;;7.90;99.90;;;;;;8329881;28;20177;-75
2022/05/23 03:55:02;;;;;;;3.43;2.90;;;8.70;1.00;;;;;;8324933;28;20293;-75
2022/05/23 03:59:04;;;;;;;5.03;3.37;;;9.10;99.90;;;;;;8342721;28;20191;-76
2022/05/23 04:03:05;;;;;;;3.57;2.37;;;9.60;99.90;;;;;;8335990;28;20206;-74
2022/05/23 04:07:07;;;;;;;3.10;2.60;;;10.60;18.80;;;;;;8325460;28;20211;-76
2022/05/23 04:11:08;;;;;;;2.90;2.30;;;11.70;99.90;;;;;;8337814;28;20188;-80
2022/05/23 04:15:09;;;;;;;6.03;3.23;;;12.60;1.00;;;;;;8336808;28;20278;-75
2022/05/23 04:19:10;;;;;;;4.10;3.00;;;13.00;99.90;;;;;;8323517;28;20331;-80
2022/05/23 04:23:11;;;;;;;3.17;2.67;;;13.30;99.90;;;;;;8328252;28;20221;-76
2022/05/23 04:27:12;;;;;;;5.47;2.77;;;13.60;99.90;;;;;;8328386;28;20252;-75
2022/05/23 04:31:13;;;;;;;4.37;3.13;;;14.00;99.90;;;;;;8346739;28;20218;-77
2022/05/23 04:35:14;;;;;;;3.20;2.87;;;14.30;99.90;;;;;;8320742;28;20250;-77
2022/05/23 04:39:14;;;;;;;4.40;3.03;;;14.70;99.90;;;;;;8319912;28;20356;-75
2022/05/23 04:43:16;;;;;;;4.47;3.23;;;15.20;99.90;;;;;;8338291;28;20211;-80
2022/05/23 04:51:36;;;;;;;4.70;3.40;;;16.20;99.90;;;;;;8343339;28;20277;-77
2022/05/23 04:55:38;;;;;;;3.17;2.87;;;15.90;99.90;;;;;;8327907;28;20191;-80
2022/05/23 04:59:39;;;;;;;3.93;3.27;;;15.70;99.90;;;;;;8328921;28;20204;-75
2022/05/23 05:03:39;;;;;;;4.13;3.03;;;15.70;99.90;;;;;;8349757;28;20209;-76
2022/05/23 05:07:41;;;;;;;3.47;3.00;;;15.30;99.90;;;;;;8329909;28;20274;-80
2022/05/23 05:11:41;;;;;;;6.13;3.10;;;14.40;1.00;;;;;;8338336;28;20186;-77
2022/05/23 05:15:42;;;;;;;3.70;2.33;;;13.90;1.00;;;;;;8349253;28;20183;-77
2022/05/23 05:19:43;;;;;;;4.53;2.50;;;13.80;99.90;;;;;;8324000;28;20217;-80
2022/05/23 05:23:44;;;;;;;3.73;2.30;;;13.70;99.90;;;;;;8331436;28;20244;-80
2022/05/23 05:27:45;;;;;;;2.90;2.50;;;13.80;99.90;;;;;;8328130;28;20208;-78
2022/05/23 05:31:53;;;;;;;4.43;2.23;;;13.90;99.90;;;;;;8326237;28;20195;-78
2022/05/23 05:36:01;;;;;;;3.80;2.23;;;14.00;99.90;;;;;;8332630;28;20189;-77
2022/05/23 05:40:05;;;;;;;3.33;2.00;;;14.10;99.90;;;;;;8328394;28;20254;-76
2022/05/23 05:44:09;;;;;;;4.83;2.17;;;14.20;99.90;;;;;;8326830;28;20280;-76
2022/05/23 05:48:11;;;;;;;3.47;1.93;;;14.40;99.90;;;;;;8326330;28;20183;-79
2022/05/23 05:52:13;;;;;;;3.27;1.87;;;14.60;99.90;;;;;;8330130;28;20206;-78
2022/05/23 05:56:14;;;;;;;4.50;2.10;;;14.70;99.90;;;;;;8342182;28;20193;-79
2022/05/23 06:00:16;;;;;;;3.43;1.83;;;14.90;99.90;;;;;;8346500;28;20185;-80
2022/05/23 06:04:17;;;;;;;4.40;2.30;;;15.10;99.90;;;;;;8329801;28;20178;-77
2022/05/23 06:12:37;;;;;;;2.93;1.80;;;15.40;1.00;;;;;;8342113;28;20205;-76
2022/05/23 06:16:38;;;;;;;3.27;1.53;;;15.40;1.00;;;;;;8323696;28;20206;-80
2022/05/23 06:20:39;;;;;;;2.60;1.80;;;15.40;1.00;;;;;;8333241;28;20248;-78
2022/05/23 06:24:44;;;;;;;3.57;1.40;;;15.50;1.00;;;;;;8333834;28;20194;-77
2022/05/23 06:28:45;;;;;;;2.80;1.60;;;15.60;1.00;;;;;;8326489;28;20206;-80
2022/05/23 06:32:46;;;;;;;2.93;1.60;;;15.70;1.00;;;;;;8340470;28;20280;-78
2022/05/23 06:36:47;;;;;;;3.60;1.70;;;16.00;1.00;;;;;;8333550;28;20225;-76
2022/05/23 06:40:50;;;;;;;3.87;1.70;;;16.20;99.90;;;;;;8322033;28;20209;-76
2022/05/23 06:44:50;;;;;;;3.27;1.53;;;16.40;99.90;;;;;;8329928;28;20185;-76
2022/05/23 06:48:54;;;;;;;1.80;1.23;;;16.60;99.90;;;;;;8318873;28;20182;-79
2022/05/23 06:52:55;;;;;;;4.10;1.70;;;16.80;99.90;;;;;;8328052;28;20273;-80
2022/05/23 06:56:56;;;;;;;3.70;1.67;;;16.90;99.90;;;;;;8345888;28;20227;-80
2022/05/23 07:00:57;;;;;;;3.10;1.40;;;16.90;99.90;;;;;;8330099;28;20296;-77
2022/05/23 07:13:46;;;;;;;4.30;1.57;;;17.10;99.90;;;;;;8323896;28;20224;-80
2022/05/23 07:17:48;;;;;;;5.50;2.20;;;17.20;99.90;;;;;;8313235;28;20189;-79
2022/05/23 07:21:49;;;;;;;3.00;2.03;;;17.20;99.90;;;;;;8338427;28;20210;-77
2022/05/23 07:25:50;;;;;;;3.83;2.57;;;17.20;99.90;;;;;;8323352;28;20188;-79
2022/05/23 07:29:50;;;;;;;4.37;2.60;;;17.30;99.90;;;;;;8346340;28;20285;-77
2022/05/23 07:33:51;;;;;;;4.03;2.27;;;17.30;99.90;;;;;;8335215;28;20323;-75
2022/05/23 07:37:53;;;;;;;4.50;1.87;;;17.40;99.90;;;;;;8340912;28;20289;-80
2022/05/23 07:41:54;;;;;;;6.97;2.73;;;17.40;99.90;;;;;;8322279;28;20304;-75
2022/05/23 07:45:55;;;;;;;5.73;2.17;;;17.50;99.90;;;;;;8318715;28;20231;-77
2022/05/23 07:49:55;;;;;;;6.77;2.80;;;17.70;99.90;;;;;;8333282;28;20178;-77
2022/05/23 08:02:37;;;;;;;7.33;2.50;;;18.20;50.00;;;;;;8346509;28;20299;-77
2022/05/23 08:06:37;;;;;;;8.97;2.40;;;18.30;25.50;;;;;;8322578;28;20182;-77
2022/05/23 08:10:38;;;;;;;5.00;1.77;;;18.30;99.90;;;;;;8318696;28;20221;-77
2022/05/23 08:14:39;;;;;;;2.77;1.50;;;18.40;99.90;;;;;;8328521;28;20560;-76
2022/05/23 08:18:40;;;;;;;2.13;1.40;;;18.60;52.40;;;;;;8338555;28;20186;-76
2022/05/23 08:22:41;;;;;;;3.80;1.77;;;18.70;44.80;;;;;;8344289;28;20214;-77
2022/05/23 08:26:43;;;;;;;5.37;1.57;;;18.90;44.50;;;;;;8344603;28;20198;-77
2022/05/23 08:30:44;;;;;;;3.77;1.90;;;19.10;28.60;;;;;;8327429;28;20186;-79
2022/05/23 08:34:47;;;;;;;3.10;1.77;;;19.10;13.40;;;;;;8334104;28;20190;-77
2022/05/23 08:38:48;;;;;;;4.10;2.23;;;19.20;1.00;;;;;;8340723;28;20209;-77
2022/05/23 08:42:58;;;;;;;2.77;1.57;;;19.20;9.50;;;;;;8346737;28;20779;-77
2022/05/23 08:47:05;;;;;;;2.03;1.43;;;19.30;9.50;;;;;;8347124;28;20175;-76
2022/05/23 08:51:19;;;;;;;5.07;1.30;;;19.30;1.00;;;;;;8337333;28;20189;-77
2022/05/23 08:55:35;;;;;;;6.20;1.40;;;19.40;1.00;;;;;;8332661;28;20205;-77
2022/05/23 08:59:43;;;;;;;2.13;1.40;;;19.60;1.00;;;;;;8335893;28;20190;-77
2022/05/23 09:04:02;;;;;;;5.73;2.17;;;19.70;1.00;;;;;;8345648;28;20233;-79
2022/05/23 09:08:11;;;;;;;26.30;2.07;;;19.70;1.00;;;;;;8347245;28;20182;-76
2022/05/23 09:12:15;;;;;;;4.03;1.40;;;19.70;1.00;;;;;;8344451;28;20261;-75
2022/05/23 09:16:16;;;;;;;2.13;1.10;;;19.80;1.00;;;;;;8322797;28;20229;-80
2022/05/23 09:20:27;;;;;;;2.60;1.33;;;20.00;1.00;;;;;;8346613;28;20186;-79
2022/05/23 09:24:51;;;;;;;6.20;1.73;;;20.10;1.00;;;;;;8331630;28;20189;-78
2022/05/23 09:28:52;;;;;;;6.47;1.90;;;20.30;1.00;;;;;;8329883;28;20194;-80
2022/05/23 09:33:02;;;;;;;8.37;2.10;;;20.40;1.00;;;;;;8348539;28;20624;-81
2022/05/23 09:37:19;;;;;;;3.37;1.60;;;20.70;1.00;;;;;;8344063;28;20253;-80
2022/05/23 09:50:35;;;;;;;4.30;2.10;;;20.90;1.00;;;;;;8341508;28;20244;-78
2022/05/23 09:54:47;;;;;;;2.07;1.40;;;20.80;1.00;;;;;;8328740;28;20186;-80
2022/05/23 09:58:48;;;;;;;2.47;1.60;;;20.80;1.00;;;;;;8340104;28;20190;-76
2022/05/23 10:02:54;;;;;;;3.37;1.33;;;20.80;1.00;;;;;;8320710;28;20209;-77
2022/05/23 10:06:55;;;;;;;2.20;1.30;;;20.90;1.00;;;;;;8325344;28;20182;-77
2022/05/23 10:11:05;;;;;;;3.83;1.80;;;21.00;1.00;;;;;;8326239;28;20181;-77
2022/05/23 10:15:18;;;;;;;2.27;0.90;;;21.20;1.00;;;;;;8331282;28;20209;-77
2022/05/23 10:19:28;;;;;;;2.23;1.10;;;21.40;1.00;;;;;;8326779;28;20220;-81
2022/05/23 10:23:33;;;;;;;4.37;1.27;;;21.40;1.00;;;;;;8336526;28;20246;-77
2022/05/23 10:27:56;;;;;;;2.33;0.97;;;21.60;1.00;;;;;;8331911;28;20565;-76
2022/05/23 10:32:07;;;;;;;2.77;1.00;;;21.90;1.00;;;;;;8331042;28;20187;-76
2022/05/23 10:36:21;;;;;;;2.67;1.50;;;21.90;1.00;;;;;;8322859;28;20277;-76
2022/05/23 10:45:03;;;;;;;2.60;1.50;;;22.10;1.00;;;;;;8344345;28;20212;-76
2022/05/23 10:49:12;;;;;;;3.37;1.70;;;22.20;1.00;;;;;;8338388;28;20276;-76
2022/05/23 10:53:25;;;;;;;2.00;1.30;;;22.20;1.00;;;;;;8342317;28;20214;-78
2022/05/23 10:58:19;;;;;;;7.70;2.73;;;22.50;1.00;;;;;;8327578;28;20186;-76
2022/05/23 11:02:37;;;;;;;2.50;1.37;;;22.60;1.00;;;;;;8222130;28;20229;-77
2022/05/23 11:06:58;;;;;;;3.47;1.20;;;22.70;1.00;;;;;;8341672;28;20200;-78
2022/05/23 11:11:32;;;;;;;9.10;3.27;;;22.70;1.00;;;;;;8321969;28;20268;-78
2022/05/23 11:16:00;;;;;;;4.70;1.97;;;23.00;1.00;;;;;;8328606;28;20203;-77
2022/05/23 11:20:13;;;;;;;1.67;1.00;;;23.00;1.00;;;;;;8338750;28;20182;-78
2022/05/23 11:24:22;;;;;;;3.03;0.90;;;23.10;1.00;;;;;;8344227;28;20197;-76
2022/05/23 11:41:40;;;;;;;3.70;1.10;;;23.70;1.00;;;;;;8333827;28;20216;-75
2022/05/23 11:45:59;;;;;;;2.77;1.00;;;23.90;1.00;;;;;;8337413;28;20189;-79
2022/05/23 11:50:04;;;;;;;4.37;1.03;;;23.90;1.00;;;;;;8339806;28;20213;-77
2022/05/23 11:54:12;;;;;;;2.97;1.20;;;24.20;1.00;;;;;;8325313;28;20174;-80
2022/05/23 11:58:30;;;;;;;3.27;0.90;;;24.30;1.00;;;;;;8328332;28;20217;-78
2022/05/23 12:02:39;;;;;;;2.23;1.20;;;24.00;1.00;;;;;;8325336;28;20218;-78
2022/05/23 12:06:41;;;;;;;2.20;1.53;;;24.10;1.00;;;;;;8326644;28;20183;-77
2022/05/23 12:10:53;;;;;;;3.40;1.23;;;24.00;1.00;;;;;;8330433;28;20190;-80
2022/05/23 12:14:55;;;;;;;2.60;1.33;;;24.10;1.00;;;;;;8319433;28;20193;-80
2022/05/23 12:19:08;;;;;;;4.07;0.73;;;24.30;1.00;;;;;;8336914;28;20185;-76
2022/05/23 12:23:28;;;;;;;2.57;1.17;;;24.00;1.00;;;;;;8338724;28;20205;-80
2022/05/23 12:27:36;;;;;;;3.80;1.17;;;23.90;1.00;;;;;;8335716;28;20209;-76
2022/05/23 12:32:08;;;;;;;4.40;2.47;;;23.70;1.00;;;;;;8330462;28;20589;-76
2022/05/23 12:36:11;;;;;;;1.67;0.60;;;23.90;1.00;;;;;;8324774;28;20189;-77
2022/05/23 12:40:15;;;;;;;1.47;1.00;;;24.10;1.00;;;;;;8322345;28;20213;-80
2022/05/23 12:44:32;;;;;;;4.53;1.07;;;24.20;1.00;;;;;;8332473;28;20289;-80
2022/05/23 12:48:55;;;;;;;1.07;0.60;;;23.90;1.00;;;;;;8322397;28;20648;-80
2022/05/23 12:53:14;;;;;;;3.57;1.37;;;23.90;1.00;;;;;;8325282;28;20193;-79
2022/05/23 12:57:19;;;;;;;2.37;0.90;;;23.70;1.00;;;;;;8329204;28;20274;-75
2022/05/23 13:01:28;;;;;;;3.07;0.90;;;23.50;1.00;;;;;;8338809;28;20209;-77
2022/05/23 13:05:38;;;;;;;2.53;1.00;;;23.30;1.00;;;;;;8323823;28;20201;-76
2022/05/23 13:10:02;;;;;;;1.97;0.97;;;23.20;1.00;;;;;;8316464;28;20209;-76
2022/05/23 13:14:03;;;;;;;3.20;1.60;;;22.80;1.00;;;;;;8342867;28;20186;-78
2022/05/23 13:22:30;;;;;;;2.43;0.83;;;22.20;1.00;;;;;;8341687;28;20241;-75
2022/05/23 13:26:31;;;;;;;3.53;1.07;;;22.40;1.00;;;;;;8342278;28;20178;-75
2022/05/23 13:30:42;;;;;;;2.47;0.90;;;22.70;1.00;;;;;;8330142;28;20195;-76
2022/05/23 13:34:45;;;;;;;3.67;0.90;;;22.80;1.00;;;;;;8334568;28;20179;-76
2022/05/23 13:39:09;;;;;;;1.87;0.90;;;23.00;1.00;;;;;;8327206;28;20198;-75
2022/05/23 13:43:12;;;;;;;5.37;1.47;;;23.20;1.00;;;;;;8330689;28;20383;-75
2022/05/23 13:47:32;;;;;;;3.10;1.10;;;23.10;1.00;;;;;;8348186;28;20190;-79
2022/05/23 13:52:00;;;;;;;1.77;0.93;;;22.90;1.00;;;;;;8333853;28;20183;-78
2022/05/23 13:56:04;;;;;;;2.10;1.17;;;22.90;1.00;;;;;;8319970;28;20193;-75
2022/05/23 14:00:21;;;;;;;4.07;1.10;;;22.90;1.00;;;;;;8328446;28;20214;-80
2022/05/23 14:04:27;;;;;;;2.60;0.83;;;22.80;1.00;;;;;;8325844;28;20210;-76
2022/05/23 14:08:39;;;;;;;2.97;0.90;;;22.90;1.00;;;;;;8334762;28;20212;-80
2022/05/23 14:12:40;;;;;;;3.77;1.00;;;23.40;1.00;;;;;;8321730;28;20190;-76
2022/05/23 14:16:51;;;;;;;4.23;0.80;;;23.90;1.00;;;;;;8329300;28;20193;-75
2022/05/23 14:20:52;;;;;;;1.00;0.60;;;24.10;1.00;;;;;;8324334;28;20221;-79
2022/05/23 14:24:56;;;;;;;1.77;0.80;;;24.20;1.00;;;;;;8329187;28;20233;-79
2022/05/23 14:28:57;;;;;;;6.17;1.00;;;24.40;1.00;;;;;;8319236;28;20197;-79
2022/05/23 14:33:00;;;;;;;3.10;0.70;;;24.50;1.00;;;;;;8325723;28;20201;-76
2022/05/23 14:37:08;;;;;;;2.07;0.90;;;24.70;1.00;;;;;;8318626;28;20216;-75
2022/05/23 14:41:12;;;;;;;4.53;1.80;;;24.70;1.00;;;;;;8344410;28;20214;-79
2022/05/23 14:45:22;;;;;;;6.93;1.10;;;24.90;99.90;;;;;;8331080;28;20200;-76
2022/05/23 14:49:35;;;;;;;5.53;2.63;;;24.50;99.90;;;;;;8339591;28;20179;-77
2022/05/23 15:02:48;;;;;;;4.97;0.87;;;23.20;99.90;;;;;;8342061;28;20279;-75
2022/05/23 15:06:49;;;;;;;4.90;1.23;;;23.00;1.00;;;;;;8338425;28;20227;-79
2022/05/23 15:10:52;;;;;;;2.60;0.90;;;22.80;1.00;;;;;;8322586;28;20188;-79
2022/05/23 15:14:54;;;;;;;1.87;1.00;;;22.60;1.00;;;;;;8314837;28;20268;-77
2022/05/23 15:18:56;;;;;;;3.30;0.73;;;22.50;1.00;;;;;;8323128;28;20282;-75
2022/05/23 15:22:57;;;;;;;1.10;0.70;;;22.40;1.00;;;;;;8318333;28;20217;-76
2022/05/23 15:26:58;;;;;;;2.60;1.00;;;22.40;1.00;;;;;;8341979;28;20177;-75
2022/05/23 15:30:59;;;;;;;1.60;0.73;;;22.20;1.00;;;;;;8325655;28;20195;-76
2022/05/23 15:34:59;;;;;;;3.63;1.10;;;22.00;1.00;;;;;;8330523;28;20276;-78
2022/05/23 15:39:00;;;;;;;3.07;1.17;;;21.90;1.00;;;;;;8321268;28;20241;-76
2022/05/23 15:43:02;;;;;;;4.60;0.90;;;21.80;1.00;;;;;;8323979;28;20210;-75
2022/05/23 15:47:07;;;;;;;4.20;1.00;;;21.70;1.00;;;;;;8318721;28;20185;-80
2022/05/23 15:51:08;;;;;;;1.53;0.70;;;21.60;1.00;;;;;;8335746;28;20206;-75
2022/05/23 15:55:09;;;;;;;2.20;1.17;;;21.70;1.00;;;;;;8327588;28;20186;-77
2022/05/23 15:59:12;;;;;;;1.83;1.00;;;21.80;1.00;;;;;;8323327;28;20173;-75
2022/05/23 16:03:13;;;;;;;2.43;1.00;;;21.90;1.00;;;;;;8348054;28;20199;-75
2022/05/23 16:07:14;;;;;;;1.93;0.87;;;21.90;1.00;;;;;;8327681;28;20197;-76
2022/05/23 16:11:26;;;;;;;1.63;0.87;;;21.90;1.00;;;;;;8328300;28;20186;-75
2022/05/23 16:15:31;;;;;;;1.57;0.80;;;22.00;1.00;;;;;;8339503;28;20197;-76
2022/05/23 16:19:32;;;;;;;4.53;1.07;;;22.00;1.00;;;;;;8336899;28;20217;-80
2022/05/23 16:23:35;;;;;;;1.93;0.70;;;21.80;1.00;;;;;;8322204;28;20221;-77
2022/05/23 16:27:37;;;;;;;2.83;1.03;;;21.80;1.00;;;;;;8335270;28;20208;-79
2022/05/23 16:31:38;;;;;;;3.80;1.10;;;21.80;1.00;;;;;;8327939;28;20252;-75
2022/05/23 16:39:58;;;;;;;2.33;1.33;;;21.80;1.00;;;;;;8338541;28;20217;-80
2022/05/23 16:43:59;;;;;;;1.93;1.03;;;21.80;1.00;;;;;;8326949;28;20202;-76
2022/05/23 16:47:59;;;;;;;2.00;0.87;;;21.70;1.00;;;;;;8320439;28;20268;-81
2022/05/23 16:52:00;;;;;;;1.97;0.87;;;21.60;1.00;;;;;;8334996;28;20595;-76
2022/05/23 16:56:01;;;;;;;3.80;1.87;;;21.50;1.00;;;;;;8325224;28;20180;-80
2022/05/23 17:00:03;;;;;;;6.13;1.80;;;21.50;1.00;;;;;;8347246;28;20182;-81
2022/05/23 17:04:04;;;;;;;1.37;0.90;;;21.60;1.00;;;;;;8348326;28;20304;-80
2022/05/23 17:08:05;;;;;;;3.07;0.90;;;21.50;1.00;;;;;;8331938;28;20185;-76
2022/05/23 17:12:07;;;;;;;3.80;1.00;;;21.70;1.00;;;;;;8332198;28;20600;-76
2022/05/23 17:16:09;;;;;;;3.30;0.90;;;21.80;1.00;;;;;;8342095;28;20206;-78
2022/05/23 17:20:11;;;;;;;4.37;0.77;;;22.10;1.00;;;;;;8332593;28;20516;-80
2022/05/23 17:24:11;;;;;;;3.27;0.87;;;22.30;1.00;;;;;;8329620;28;20221;-75
2022/05/23 17:28:13;;;;;;;3.37;1.10;;;22.30;1.00;;;;;;8334480;28;20209;-78
2022/05/23 17:32:14;;;;;;;1.97;0.97;;;22.20;1.00;;;;;;8337409;28;20186;-80
2022/05/23 17:36:16;;;;;;;3.13;0.90;;;21.70;1.00;;;;;;8327420;28;20248;-77
2022/05/23 17:40:17;;;;;;;2.20;1.10;;;21.30;1.00;;;;;;8327912;28;20209;-80
2022/05/23 17:44:19;;;;;;;3.37;1.07;;;21.00;1.00;;;;;;8330229;28;20312;-80
2022/05/23 17:48:19;;;;;;;3.47;1.00;;;20.70;1.00;;;;;;8331777;28;20802;-76
2022/05/23 17:52:20;;;;;;;2.63;0.80;;;20.40;1.00;;;;;;8334171;28;20189;-80
2022/05/23 17:56:21;;;;;;;1.90;0.80;;;20.20;1.00;;;;;;8333402;28;20218;-80
2022/05/23 18:00:24;;;;;;;3.57;1.33;;;20.00;1.00;;;;;;8322755;28;20186;-77
2022/05/23 18:04:25;;;;;;;6.13;1.47;;;19.70;1.00;;;;;;8325287;28;20214;-75
2022/05/23 18:08:27;;;;;;;2.37;1.23;;;19.40;1.00;;;;;;8328732;28;20186;-77
2022/05/23 18:12:28;;;;;;;4.57;1.50;;;19.10;1.00;;;;;;8328940;28;20294;-76
2022/05/23 18:20:49;;;;;;;1.70;1.13;;;18.80;1.00;;;;;;8348152;28;20197;-78
2022/05/23 18:24:50;;;;;;;1.40;0.90;;;18.60;1.00;;;;;;8322538;28;20193;-76
2022/05/23 18:28:51;;;;;;;2.30;1.33;;;18.70;1.00;;;;;;8334963;28;20615;-77
2022/05/23 18:32:52;;;;;;;3.33;1.30;;;18.60;1.00;;;;;;8344737;28;20243;-79
2022/05/23 18:36:54;;;;;;;2.23;1.47;;;18.50;1.00;;;;;;8320484;28;20267;-77
2022/05/23 18:40:58;;;;;;;4.07;1.90;;;18.30;1.00;;;;;;8336477;28;20201;-80
2022/05/23 18:44:59;;;;;;;4.23;1.27;;;18.20;1.00;;;;;;8342957;28;20182;-77
2022/05/23 18:53:20;;;;;;;2.33;1.33;;;18.00;1.00;;;;;;8337511;28;20244;-76
2022/05/23 18:57:22;;;;;;;4.10;1.70;;;17.90;1.60;;;;;;8329124;28;20186;-75
2022/05/23 19:01:22;;;;;;;1.93;1.17;;;17.90;5.00;;;;;;8338103;28;20208;-76
2022/05/23 19:05:23;;;;;;;2.60;1.60;;;17.80;13.30;;;;;;8319271;28;20178;-76
2022/05/23 19:09:24;;;;;;;2.27;1.33;;;17.70;19.90;;;;;;8323791;28;20277;-75
2022/05/23 19:13:26;;;;;;;3.03;1.60;;;17.70;18.60;;;;;;8304086;28;20190;-75
2022/05/23 19:17:27;;;;;;;4.63;1.50;;;17.60;18.20;;;;;;8333784;28;20255;-75
2022/05/23 19:21:31;;;;;;;4.03;1.60;;;17.60;12.70;;;;;;8327083;28;20201;-78
2022/05/23 19:25:31;;;;;;;5.10;1.70;;;17.60;14.10;;;;;;8324033;28;20228;-78
2022/05/23 19:29:32;;;;;;;4.83;1.70;;;17.50;13.30;;;;;;8319553;28;20202;-77
2022/05/23 19:33:33;;;;;;;5.93;1.90;;;17.40;11.60;;;;;;8341428;28;20189;-78
2022/05/23 19:37:34;;;;;;;4.43;1.80;;;17.40;7.30;;;;;;8324810;28;20182;-78
2022/05/23 19:41:35;;;;;;;3.50;1.57;;;17.30;2.40;;;;;;8337033;28;20212;-79
2022/05/23 19:45:36;;;;;;;6.77;1.70;;;17.30;1.00;;;;;;8321018;28;20189;-79
2022/05/23 19:49:37;;;;;;;6.00;1.67;;;17.30;1.00;;;;;;8328118;28;20238;-77
2022/05/23 19:53:39;;;;;;;4.17;1.70;;;17.20;1.00;;;;;;8329319;28;20216;-78
2022/05/23 19:57:41;;;;;;;6.97;1.97;;;17.20;1.00;;;;;;8344336;28;20189;-78
2022/05/23 20:10:26;;;;;;;5.90;2.00;;;17.10;1.00;;;;;;8338626;28;20277;-78
2022/05/23 20:15:21;;;;;;;4.07;1.57;;;17.10;1.00;;;;;;8340077;28;20248;-78
2022/05/23 20:18:49;;;;;;;2.70;1.60;;;17.00;1.00;;;;;;8331778;28;20216;-77
2022/05/23 20:22:51;;;;;;;2.03;1.17;;;16.90;1.00;;;;;;8347502;28;20205;-79
2022/05/23 20:26:52;;;;;;;4.33;1.70;;;16.80;1.00;;;;;;8334265;28;20178;-78
2022/05/23 20:30:53;;;;;;;3.07;1.60;;;16.80;1.00;;;;;;8322433;28;20194;-78
2022/05/23 20:34:54;;;;;;;2.43;1.43;;;16.70;1.00;;;;;;8322408;28;20321;-78
2022/05/23 20:38:55;;;;;;;3.63;1.67;;;16.60;1.00;;;;;;8340628;28;20202;-77
2022/05/23 20:42:58;;;;;;;2.10;1.60;;;16.60;1.00;;;;;;8327920;28;20316;-78
2022/05/23 20:46:59;;;;;;;2.53;1.60;;;16.50;1.00;;;;;;8324798;28;20296;-78
2022/05/23 20:51:00;;;;;;;2.43;1.10;;;16.50;1.00;;;;;;8345353;28;20182;-77
2022/05/23 20:55:01;;;;;;;2.73;1.53;;;16.40;1.00;;;;;;8331905;28;20232;-77
2022/05/23 20:59:02;;;;;;;2.93;1.80;;;16.40;1.00;;;;;;8326215;28;20182;-80
2022/05/23 21:03:03;;;;;;;2.17;1.37;;;16.30;1.00;;;;;;8331422;28;20210;-78
2022/05/23 21:07:07;;;;;;;5.90;1.70;;;16.20;1.00;;;;;;8330900;28;20492;-79
2022/05/23 21:11:08;;;;;;;1.77;1.50;;;16.10;1.00;;;;;;8329171;28;20218;-78
2022/05/23 21:15:11;;;;;;;4.00;1.60;;;15.90;6.90;;;;;;8324005;28;20304;-79
2022/05/23 21:19:12;;;;;;;4.50;1.73;;;15.80;20.90;;;;;;8346818;28;20194;-79
2022/05/23 21:23:13;;;;;;;4.73;1.47;;;15.70;32.50;;;;;;8328648;28;20210;-79
2022/05/23 21:27:14;;;;;;;4.73;1.67;;;15.60;50.70;;;;;;8346413;28;20208;-78
2022/05/23 21:31:15;;;;;;;2.77;1.50;;;15.60;48.50;;;;;;8333748;28;20208;-79
2022/05/23 21:35:16;;;;;;;5.10;1.60;;;15.60;58.60;;;;;;8328481;28;20186;-78
2022/05/23 21:39:17;;;;;;;2.50;1.47;;;15.60;62.60;;;;;;8330663;28;20209;-78
2022/05/23 21:47:40;;;;;;;3.80;1.70;;;15.50;81.10;;;;;;8341193;28;20275;-78
2022/05/23 21:51:41;;;;;;;2.80;1.90;;;15.60;90.00;;;;;;8326224;28;20286;-78
2022/05/23 21:55:45;;;;;;;4.73;1.90;;;15.60;89.00;;;;;;8327261;28;20195;-78
2022/05/23 21:59:48;;;;;;;1.90;1.50;;;15.60;92.60;;;;;;8325572;28;20244;-78
2022/05/23 22:03:49;;;;;;;4.17;1.53;;;15.60;90.50;;;;;;8323502;28;20223;-78
2022/05/23 22:07:50;;;;;;;2.87;1.83;;;15.60;91.30;;;;;;8320908;28;20182;-78
2022/05/23 22:11:51;;;;;;;5.80;1.50;;;15.60;88.70;;;;;;8332951;28;20194;-78
2022/05/23 22:15:52;;;;;;;1.93;1.67;;;15.60;93.60;;;;;;8331298;28;20192;-78
2022/05/23 22:19:53;;;;;;;3.27;1.77;;;15.60;99.90;;;;;;8309518;28;20657;-77
2022/05/23 22:23:53;;;;;;;4.37;1.80;;;15.60;99.90;;;;;;8325297;28;20213;-79
2022/05/23 22:27:54;;;;;;;2.33;1.77;;;15.60;99.90;;;;;;8327348;28;20197;-78
2022/05/23 22:31:55;;;;;;;4.43;1.77;;;15.50;99.90;;;;;;8337084;28;20189;-78
2022/05/23 22:35:57;;;;;;;3.43;1.40;;;15.40;99.90;;;;;;8325647;28;20604;-78
2022/05/23 22:39:58;;;;;;;2.53;1.80;;;15.40;99.90;;;;;;8328952;28;20209;-79
2022/05/23 22:43:59;;;;;;;4.50;2.07;;;15.20;99.90;;;;;;8315772;28;20297;-80
2022/05/23 22:48:00;;;;;;;3.93;1.63;;;15.20;99.90;;;;;;8319515;28;20185;-78
2022/05/23 22:52:00;;;;;;;4.27;1.60;;;15.20;99.90;;;;;;8306993;28;20183;-79
2022/05/23 22:56:05;;;;;;;6.20;2.23;;;15.20;99.90;;;;;;8323659;28;20186;-78
2022/05/23 23:00:08;;;;;;;5.93;2.50;;;15.20;99.90;;;;;;8330183;28;20224;-79
2022/05/23 23:04:21;;;;;;;3.80;1.60;;;15.20;99.90;;;;;;8327569;28;20214;-77
2022/05/23 23:08:21;;;;;;;2.67;1.90;;;15.30;99.90;;;;;;8347996;28;20182;-78
2022/05/23 23:12:22;;;;;;;3.07;1.90;;;15.30;99.90;;;;;;8342215;28;20615;-78